createdAt,value
2023-02-14T00:00:52.689Z,4.10
2023-02-14T00:03:19.466Z,4.10
2023-02-14T00:05:47.211Z,4.10
2023-02-14T00:08:14.002Z,4.10
2023-02-14T00:10:40.722Z,4.20
2023-02-14T00:13:08.058Z,4.10
2023-02-14T00:15:34.971Z,4.10
2023-02-14T00:18:03.093Z,4.20
2023-02-14T00:20:29.951Z,4.10
2023-02-14T00:22:56.913Z,3.80
2023-02-14T00:25:23.726Z,3.90
2023-02-14T00:27:50.678Z,4.00
2023-02-14T00:30:17.497Z,4.10
2023-02-14T00:32:44.403Z,4.10
2023-02-14T00:35:11.797Z,3.70
2023-02-14T00:37:38.616Z,3.80
2023-02-14T00:40:07.327Z,3.70
2023-02-14T00:42:34.499Z,3.60
2023-02-14T00:45:01.346Z,3.60
2023-02-14T00:47:28.180Z,3.70
2023-02-14T00:49:54.997Z,3.90
2023-02-14T00:52:21.972Z,3.90
2023-02-14T00:54:48.752Z,3.80
2023-02-14T00:57:15.710Z,3.90
2023-02-14T00:59:43.626Z,3.90
2023-02-14T01:02:10.577Z,3.70
2023-02-14T01:04:39.909Z,3.60
2023-02-14T01:07:06.652Z,3.30
2023-02-14T01:09:33.523Z,3.10
2023-02-14T01:12:00.303Z,2.80
2023-02-14T01:14:27.143Z,3.10
2023-02-14T01:16:53.902Z,3.20
2023-02-14T01:19:20.740Z,3.50
2023-02-14T01:21:48.604Z,3.10
2023-02-14T01:24:15.550Z,3.20
2023-02-14T01:26:42.341Z,3.30
2023-02-14T01:29:09.133Z,3.20
2023-02-14T01:31:36.372Z,3.30
2023-02-14T01:34:04.722Z,3.90
2023-02-14T01:36:35.262Z,2.90
2023-02-14T01:39:05.535Z,2.70
2023-02-14T01:41:36.058Z,2.90
2023-02-14T01:44:27.985Z,3.00
2023-02-14T01:46:57.425Z,3.20
2023-02-14T01:49:35.970Z,2.80
2023-02-14T01:52:13.453Z,2.50
2023-02-14T01:54:45.784Z,2.70
2023-02-14T01:57:17.837Z,2.50
2023-02-14T01:59:53.551Z,2.40
2023-02-14T02:02:23.878Z,2.50
2023-02-14T02:04:55.948Z,2.40
2023-02-14T02:07:26.235Z,2.50
2023-02-14T02:10:02.824Z,2.30
2023-02-14T02:12:30.959Z,2.30
2023-02-14T02:14:58.944Z,2.20
2023-02-14T02:17:44.542Z,2.10
2023-02-14T02:20:31.705Z,2.20
2023-02-14T02:23:28.534Z,2.00
2023-02-14T02:26:16.416Z,1.60
2023-02-14T02:29:07.559Z,1.70
2023-02-14T02:31:56.592Z,1.90
2023-02-14T02:34:42.237Z,1.70
2023-02-14T02:37:21.345Z,1.80
2023-02-14T02:40:09.383Z,1.80
2023-02-14T02:42:42.812Z,2.10
2023-02-14T02:45:20.728Z,2.30
2023-02-14T02:48:00.214Z,2.30
2023-02-14T02:51:03.556Z,2.40
2023-02-14T02:53:42.832Z,2.20
2023-02-14T02:56:37.569Z,2.00
2023-02-14T02:59:21.021Z,2.40
2023-02-14T03:02:17.080Z,2.20
2023-02-14T03:04:54.186Z,2.20
2023-02-14T03:07:35.466Z,2.40
2023-02-14T03:10:08.708Z,2.30
2023-02-14T03:12:35.455Z,2.00
2023-02-14T03:15:22.552Z,1.80
2023-02-14T03:18:47.791Z,1.90
2023-02-14T03:21:58.604Z,2.00
2023-02-14T03:24:36.022Z,1.90
2023-02-14T03:27:32.759Z,1.80
2023-02-14T03:30:23.298Z,1.80
2023-02-14T03:33:05.940Z,1.90
2023-02-14T03:35:46.272Z,1.80
2023-02-14T03:38:12.948Z,1.90
2023-02-14T03:41:04.548Z,2.00
2023-02-14T03:43:36.866Z,2.00
2023-02-14T03:46:11.885Z,3.30
2023-02-14T03:48:40.755Z,1.90
2023-02-14T03:51:11.585Z,1.90
2023-02-14T03:53:43.954Z,1.40
2023-02-14T03:56:34.445Z,1.30
2023-02-14T03:59:07.505Z,1.40
2023-02-14T04:01:39.599Z,1.50
2023-02-14T04:04:07.687Z,2.60
2023-02-14T04:06:35.456Z,1.70
2023-02-14T04:09:02.737Z,1.90
2023-02-14T04:11:33.440Z,2.30
2023-02-14T04:14:00.411Z,1.50
2023-02-14T04:16:27.254Z,1.60
2023-02-14T04:19:12.703Z,1.70
2023-02-14T04:21:39.554Z,1.70
2023-02-14T04:24:06.479Z,1.50
2023-02-14T04:26:33.236Z,1.40
2023-02-14T04:29:00.202Z,1.50
2023-02-14T04:31:27.005Z,1.50
2023-02-14T04:33:54.181Z,2.10
2023-02-14T04:36:20.935Z,1.90
2023-02-14T04:38:47.650Z,1.30
2023-02-14T04:41:14.422Z,1.50
2023-02-14T04:43:43.222Z,1.30
2023-02-14T04:46:10.094Z,1.20
2023-02-14T04:48:38.084Z,1.30
2023-02-14T04:51:07.627Z,1.20
2023-02-14T04:53:40.149Z,1.30
2023-02-14T04:56:08.136Z,1.20
2023-02-14T04:58:35.230Z,1.20
2023-02-14T05:01:02.745Z,1.50
2023-02-14T05:03:29.742Z,1.50
2023-02-14T05:05:56.624Z,1.80
2023-02-14T05:08:23.374Z,2.90
2023-02-14T05:10:50.709Z,1.90
2023-02-14T05:13:18.118Z,1.50
2023-02-14T05:15:46.676Z,1.20
2023-02-14T05:18:13.387Z,0.90
2023-02-14T05:20:40.144Z,2.10
2023-02-14T05:23:14.591Z,1.10
2023-02-14T05:25:41.948Z,0.90
2023-02-14T05:28:09.408Z,0.50
2023-02-14T05:30:37.537Z,1.50
2023-02-14T05:33:04.436Z,0.80
2023-02-14T05:35:31.842Z,1.20
2023-02-14T05:37:58.583Z,2.20
2023-02-14T05:42:55.803Z,1.30
2023-02-14T05:45:23.510Z,1.10
2023-02-14T05:47:50.713Z,1.40
2023-02-14T05:50:18.413Z,1.50
2023-02-14T05:52:47.048Z,1.80
2023-02-14T05:55:14.016Z,1.90
2023-02-14T05:57:41.364Z,1.70
2023-02-14T06:00:09.167Z,1.50
2023-02-14T06:02:36.033Z,1.20
2023-02-14T06:05:02.824Z,1.00
2023-02-14T06:07:30.036Z,1.00
2023-02-14T06:09:57.305Z,0.90
2023-02-14T06:12:24.421Z,1.30
2023-02-14T06:14:51.315Z,1.30
2023-02-14T06:17:18.051Z,1.30
2023-02-14T06:19:44.838Z,1.60
2023-02-14T06:22:11.675Z,2.10
2023-02-14T06:24:38.502Z,1.20
2023-02-14T06:27:05.388Z,1.40
2023-02-14T06:29:32.138Z,1.50
2023-02-14T06:32:05.747Z,1.60
2023-02-14T06:34:34.166Z,1.60
2023-02-14T06:37:00.905Z,1.60
2023-02-14T06:39:27.810Z,1.70
2023-02-14T06:41:54.572Z,1.90
2023-02-14T06:44:21.524Z,2.80
2023-02-14T06:46:48.534Z,1.60
2023-02-14T06:49:15.334Z,1.60
2023-02-14T06:51:42.059Z,1.70
2023-02-14T06:54:08.864Z,1.70
2023-02-14T06:56:35.622Z,1.40
2023-02-14T06:59:02.376Z,1.70
2023-02-14T07:01:30.015Z,1.20
2023-02-14T07:03:56.791Z,2.10
2023-02-14T07:06:23.772Z,1.60
2023-02-14T07:08:50.497Z,1.50
2023-02-14T07:11:17.286Z,1.40
2023-02-14T07:13:44.301Z,1.50
2023-02-14T07:16:12.141Z,1.50
2023-02-14T07:18:38.963Z,1.20
2023-02-14T07:21:08.010Z,1.70
2023-02-14T07:23:34.808Z,1.40
2023-02-14T07:26:01.598Z,1.60
2023-02-14T07:28:30.362Z,2.30
2023-02-14T07:31:01.823Z,1.90
2023-02-14T07:33:30.654Z,2.00
2023-02-14T07:35:57.779Z,2.10
2023-02-14T07:38:25.963Z,2.40
2023-02-14T07:40:55.324Z,2.50
2023-02-14T07:43:22.147Z,3.30
2023-02-14T07:45:48.936Z,2.50
2023-02-14T07:48:15.700Z,2.60
2023-02-14T07:50:44.103Z,2.80
2023-02-14T07:53:13.866Z,2.90
2023-02-14T07:55:40.796Z,3.60
2023-02-14T07:58:07.950Z,2.70
2023-02-14T08:00:34.771Z,2.70
2023-02-14T08:03:01.683Z,2.60
2023-02-14T08:05:28.570Z,2.80
2023-02-14T08:07:55.763Z,3.10
2023-02-14T08:10:22.522Z,3.30
2023-02-14T08:13:01.494Z,4.00
2023-02-14T08:15:51.988Z,3.40
2023-02-14T08:18:20.297Z,3.10
2023-02-14T08:20:51.198Z,2.90
2023-02-14T08:23:21.991Z,3.20
2023-02-14T08:25:51.041Z,2.80
2023-02-14T08:28:21.821Z,2.80
2023-02-14T08:30:49.115Z,3.00
2023-02-14T08:33:17.936Z,3.10
2023-02-14T08:35:45.091Z,3.20
2023-02-14T08:38:13.091Z,3.50
2023-02-14T08:40:40.169Z,3.70
2023-02-14T08:43:07.787Z,3.80
2023-02-14T08:45:36.398Z,3.40
2023-02-14T08:48:06.918Z,3.50
2023-02-14T08:50:34.828Z,3.40
2023-02-14T08:53:02.400Z,3.30
2023-02-14T08:55:29.566Z,3.30
2023-02-14T08:57:57.684Z,3.70
2023-02-14T09:00:26.998Z,3.20
2023-02-14T09:02:54.111Z,3.00
2023-02-14T09:05:23.575Z,3.20
2023-02-14T09:07:55.997Z,3.50
2023-02-14T09:10:23.743Z,3.40
2023-02-14T09:12:50.715Z,3.60
2023-02-14T09:15:18.694Z,3.80
2023-02-14T09:17:45.634Z,4.20
2023-02-14T09:20:13.934Z,4.40
2023-02-14T09:22:40.954Z,4.90
2023-02-14T09:25:07.966Z,5.20
2023-02-14T09:27:34.930Z,5.10
2023-02-14T09:30:02.147Z,4.90
2023-02-14T09:32:29.429Z,4.80
2023-02-14T09:34:56.636Z,5.00
2023-02-14T09:37:42.392Z,4.70
2023-02-14T09:40:12.434Z,4.70
2023-02-14T09:43:01.987Z,4.80
2023-02-14T09:45:32.351Z,5.00
2023-02-14T09:48:15.110Z,5.20
2023-02-14T09:50:52.677Z,5.40
2023-02-14T09:53:36.622Z,5.40
2023-02-14T09:56:12.535Z,5.40
2023-02-14T09:59:01.500Z,5.20
2023-02-14T10:01:52.969Z,5.00
2023-02-14T10:04:39.799Z,5.00
2023-02-14T10:07:29.269Z,5.30
2023-02-14T10:10:23.569Z,5.60
2023-02-14T10:13:05.645Z,5.60
2023-02-14T10:15:41.391Z,5.50
2023-02-14T10:18:51.140Z,5.40
2023-02-14T10:21:27.498Z,5.60
2023-02-14T10:24:17.455Z,5.80
2023-02-14T10:26:46.091Z,6.00
2023-02-14T10:29:16.810Z,6.20
2023-02-14T10:31:58.030Z,6.20
2023-02-14T10:34:50.169Z,6.10
2023-02-14T10:37:27.751Z,6.30
2023-02-14T10:40:12.617Z,6.20
2023-02-14T10:43:03.816Z,6.20
2023-02-14T10:45:46.273Z,6.50
2023-02-14T10:48:16.685Z,6.50
2023-02-14T10:51:06.909Z,6.80
2023-02-14T10:53:45.683Z,6.60
2023-02-14T10:56:23.248Z,6.60
2023-02-14T10:58:52.082Z,6.70
2023-02-14T11:01:19.427Z,6.80
2023-02-14T11:04:08.739Z,7.10
2023-02-14T11:06:35.561Z,6.00
2023-02-14T11:09:03.161Z,6.60
2023-02-14T11:11:40.121Z,6.50
2023-02-14T11:14:29.450Z,6.60
2023-02-14T11:16:57.894Z,7.00
2023-02-14T11:19:36.927Z,7.10
2023-02-14T11:22:05.643Z,7.10
2023-02-14T11:24:38.476Z,7.30
2023-02-14T11:27:17.766Z,7.30
2023-02-14T11:29:48.181Z,7.30
2023-02-14T11:32:23.829Z,7.40
2023-02-14T11:35:04.146Z,7.60
2023-02-14T11:37:37.147Z,7.70
2023-02-14T11:40:05.649Z,7.80
2023-02-14T11:42:42.844Z,7.90
2023-02-14T11:45:33.002Z,8.10
2023-02-14T11:48:24.997Z,8.10
2023-02-14T11:51:04.595Z,8.00
2023-02-14T11:53:43.560Z,7.90
2023-02-14T11:56:11.330Z,8.30
2023-02-14T11:58:40.814Z,8.10
2023-02-14T12:01:13.730Z,8.40
2023-02-14T12:03:47.365Z,8.50
2023-02-14T12:06:27.919Z,8.30
2023-02-14T12:09:22.883Z,8.30
2023-02-14T12:12:14.975Z,8.50
2023-02-14T12:14:42.074Z,8.60
2023-02-14T12:17:11.722Z,8.80
2023-02-14T12:19:47.666Z,8.60
2023-02-14T12:22:22.802Z,8.70
2023-02-14T12:25:05.848Z,8.70
2023-02-14T12:27:43.912Z,8.90
2023-02-14T12:30:22.887Z,9.00
2023-02-14T12:32:54.543Z,9.30
2023-02-14T12:36:10.649Z,9.50
2023-02-14T12:38:49.164Z,9.80
2023-02-14T12:41:35.120Z,9.80
2023-02-14T12:44:13.281Z,9.70
2023-02-14T12:46:49.345Z,9.90
2023-02-14T12:49:19.126Z,10.00
2023-02-14T12:51:54.137Z,10.30
2023-02-14T12:54:50.878Z,10.60
2023-02-14T12:57:35.394Z,11.00
2023-02-14T13:00:13.185Z,11.30
2023-02-14T13:03:23.404Z,11.80
2023-02-14T13:06:16.202Z,12.20
2023-02-14T13:09:15.172Z,13.10
2023-02-14T13:11:47.785Z,13.40
2023-02-14T13:14:17.550Z,13.00
2023-02-14T13:17:35.061Z,13.00
2023-02-14T13:20:04.392Z,12.80
2023-02-14T13:22:33.528Z,13.50
2023-02-14T13:25:13.299Z,13.90
2023-02-14T13:27:41.487Z,14.90
2023-02-14T13:30:24.683Z,15.20
2023-02-14T13:32:57.178Z,14.30
2023-02-14T13:35:26.468Z,14.40
2023-02-14T13:38:03.501Z,14.30
2023-02-14T13:40:32.478Z,13.80
2023-02-14T13:43:01.057Z,12.90
2023-02-14T13:45:37.627Z,12.50
2023-02-14T13:48:17.242Z,13.20
2023-02-14T13:51:01.997Z,13.70
2023-02-14T13:53:58.273Z,13.50
2023-02-14T13:56:34.380Z,13.80
2023-02-14T13:59:05.475Z,13.60
2023-02-14T14:01:42.885Z,13.60
2023-02-14T14:04:32.106Z,14.70
2023-02-14T14:07:05.251Z,13.90
2023-02-14T14:09:44.519Z,14.40
2023-02-14T14:12:26.632Z,14.70
2023-02-14T14:15:05.759Z,15.00
2023-02-14T14:17:34.037Z,14.30
2023-02-14T14:20:04.338Z,14.20
2023-02-14T14:22:31.284Z,14.00
2023-02-14T14:25:05.380Z,14.00
2023-02-14T14:27:35.392Z,14.60
2023-02-14T14:30:23.740Z,14.60
2023-02-14T14:32:51.750Z,14.40
2023-02-14T14:35:22.733Z,14.80
2023-02-14T14:37:55.618Z,14.30
2023-02-14T14:40:28.659Z,14.60
2023-02-14T14:43:05.449Z,14.60
2023-02-14T14:45:32.891Z,14.70
2023-02-14T14:48:02.992Z,14.90
2023-02-14T14:50:33.029Z,15.50
2023-02-14T14:53:09.545Z,16.00
2023-02-14T14:55:39.479Z,15.70
2023-02-14T14:58:28.253Z,15.60
2023-02-14T15:00:55.287Z,16.70
2023-02-14T15:03:25.461Z,15.60
2023-02-14T15:06:02.399Z,15.80
2023-02-14T15:08:31.104Z,15.70
2023-02-14T15:11:39.734Z,16.70
2023-02-14T15:14:17.526Z,16.60
2023-02-14T15:16:51.361Z,17.00
2023-02-14T15:19:23.368Z,16.50
2023-02-14T15:21:50.651Z,16.50
2023-02-14T15:24:19.412Z,16.60
2023-02-14T15:26:48.973Z,16.50
2023-02-14T15:29:27.860Z,15.90
2023-02-14T15:31:57.404Z,15.10
2023-02-14T15:34:32.503Z,15.50
2023-02-14T15:37:06.248Z,15.60
2023-02-14T15:39:37.352Z,15.10
2023-02-14T15:42:05.999Z,15.30
2023-02-14T15:44:33.650Z,15.80
2023-02-14T15:47:03.942Z,15.40
2023-02-14T15:49:35.690Z,14.70
2023-02-14T15:52:05.694Z,14.30
2023-02-14T15:54:44.909Z,14.80
2023-02-14T15:57:25.590Z,14.90
2023-02-14T15:59:52.715Z,14.90
2023-02-14T16:02:32.981Z,14.70
2023-02-14T16:05:21.947Z,14.60
2023-02-14T16:08:05.668Z,14.20
2023-02-14T16:10:36.801Z,14.00
2023-02-14T16:13:20.428Z,14.40
2023-02-14T16:15:58.790Z,14.60
2023-02-14T16:18:45.641Z,14.70
2023-02-14T16:21:27.774Z,14.90
2023-02-14T16:24:06.976Z,14.80
2023-02-14T16:26:44.997Z,14.60
2023-02-14T16:29:15.590Z,14.60
2023-02-14T16:32:18.350Z,14.50
2023-02-14T16:34:37.699Z,13.90
2023-02-14T16:37:18.328Z,13.00
2023-02-14T16:39:45.848Z,12.30
2023-02-14T16:42:17.619Z,12.10
2023-02-14T16:44:45.913Z,12.00
2023-02-14T16:47:14.172Z,12.20
2023-02-14T16:49:42.009Z,12.60
2023-02-14T16:52:17.832Z,12.80
2023-02-14T16:54:45.116Z,12.90
2023-02-14T16:57:22.326Z,12.80
2023-02-14T16:59:49.873Z,12.60
2023-02-14T17:02:19.030Z,12.60
2023-02-14T17:04:45.980Z,12.70
2023-02-14T17:07:15.587Z,12.70
2023-02-14T17:09:58.299Z,12.50
2023-02-14T17:12:30.666Z,12.40
2023-02-14T17:15:01.065Z,12.20
2023-02-14T17:17:29.417Z,12.00
2023-02-14T17:19:57.649Z,11.80
2023-02-14T17:22:24.917Z,11.70
2023-02-14T17:24:51.741Z,11.60
2023-02-14T17:27:19.656Z,11.50
2023-02-14T17:29:46.493Z,11.30
2023-02-14T17:32:14.543Z,11.20
2023-02-14T17:34:41.738Z,10.80
2023-02-14T17:37:08.637Z,10.60
2023-02-14T17:39:35.493Z,10.30
2023-02-14T17:42:02.721Z,10.10
2023-02-14T17:44:35.863Z,10.10
2023-02-14T17:47:04.079Z,10.00
2023-02-14T17:49:31.227Z,9.90
2023-02-14T17:51:58.101Z,10.00
2023-02-14T17:54:24.871Z,10.00
2023-02-14T17:56:52.210Z,10.00
2023-02-14T17:59:19.249Z,10.00
2023-02-14T18:01:46.190Z,10.00
2023-02-14T18:04:13.676Z,10.00
2023-02-14T18:06:40.780Z,9.80
2023-02-14T18:09:07.899Z,9.70
2023-02-14T18:11:34.988Z,9.50
2023-02-14T18:14:01.955Z,9.40
2023-02-14T18:16:29.085Z,9.30
2023-02-14T18:18:55.982Z,9.40
2023-02-14T18:21:24.629Z,9.40
2023-02-14T18:23:51.937Z,9.30
2023-02-14T18:26:19.264Z,9.10
2023-02-14T18:28:46.254Z,8.90
2023-02-14T18:31:15.789Z,8.80
2023-02-14T18:33:43.497Z,8.80
2023-02-14T18:36:18.843Z,8.80
2023-02-14T18:38:46.942Z,8.80
2023-02-14T18:41:16.361Z,8.80
2023-02-14T18:43:44.654Z,8.70
2023-02-14T18:46:14.676Z,8.60
2023-02-14T18:48:42.433Z,8.40
2023-02-14T18:51:15.775Z,8.10
2023-02-14T18:53:44.165Z,8.00
2023-02-14T18:56:16.996Z,7.90
2023-02-14T18:58:48.377Z,7.90
2023-02-14T19:01:18.243Z,8.00
2023-02-14T19:03:45.767Z,7.90
2023-02-14T19:06:13.120Z,7.80
2023-02-14T19:08:40.652Z,7.60
2023-02-14T19:11:15.712Z,7.60
2023-02-14T19:13:50.333Z,7.60
2023-02-14T19:16:20.049Z,7.60
2023-02-14T19:18:47.080Z,7.60
2023-02-14T19:21:22.245Z,7.50
2023-02-14T19:23:49.979Z,7.30
2023-02-14T19:26:27.412Z,7.30
2023-02-14T19:28:57.044Z,7.20
2023-02-14T19:31:24.949Z,7.10
2023-02-14T19:33:52.572Z,7.00
2023-02-14T19:36:21.592Z,7.00
2023-02-14T19:38:51.225Z,6.90
2023-02-14T19:41:27.693Z,7.00
2023-02-14T19:43:58.909Z,6.80
2023-02-14T19:46:27.395Z,6.90
2023-02-14T19:48:55.498Z,7.10
2023-02-14T19:51:25.844Z,6.60
2023-02-14T19:53:54.601Z,6.40
2023-02-14T19:56:26.487Z,6.40
2023-02-14T19:58:54.128Z,6.50
2023-02-14T20:01:31.815Z,6.40
2023-02-14T20:03:59.000Z,6.30
2023-02-14T20:06:26.723Z,6.30
2023-02-14T20:08:53.857Z,6.20
2023-02-14T20:11:36.332Z,6.20
2023-02-14T20:14:04.872Z,6.20
2023-02-14T20:16:33.403Z,6.20
2023-02-14T20:19:13.799Z,6.10
2023-02-14T20:21:42.081Z,5.80
2023-02-14T20:24:10.773Z,5.90
2023-02-14T20:26:39.542Z,5.70
2023-02-14T20:29:07.479Z,5.70
2023-02-14T20:31:40.370Z,5.70
2023-02-14T20:34:07.442Z,5.70
2023-02-14T20:36:35.078Z,6.00
2023-02-14T20:39:04.635Z,5.50
2023-02-14T20:41:34.482Z,5.40
2023-02-14T20:44:10.717Z,5.50
2023-02-14T20:46:37.528Z,5.40
2023-02-14T20:49:05.493Z,5.30
2023-02-14T20:51:33.117Z,5.20
2023-02-14T20:54:02.211Z,5.30
2023-02-14T20:56:29.380Z,5.10
2023-02-14T20:58:56.269Z,4.80
2023-02-14T21:01:24.814Z,4.70
2023-02-14T21:03:53.325Z,4.90
2023-02-14T21:06:22.283Z,4.90
2023-02-14T21:08:49.764Z,4.80
2023-02-14T21:11:19.917Z,4.80
2023-02-14T21:13:47.201Z,4.90
2023-02-14T21:16:17.923Z,5.80
2023-02-14T21:18:49.177Z,5.00
2023-02-14T21:21:20.568Z,5.00
2023-02-14T21:23:52.519Z,4.80
2023-02-14T21:26:21.314Z,4.70
2023-02-14T21:28:48.549Z,4.50
2023-02-14T21:31:17.967Z,4.30
2023-02-14T21:33:44.952Z,4.40
2023-02-14T21:36:14.614Z,4.50
2023-02-14T21:38:43.307Z,4.50
2023-02-14T21:41:15.586Z,4.60
2023-02-14T21:43:44.552Z,4.70
2023-02-14T21:46:18.610Z,4.60
2023-02-14T21:49:04.698Z,4.60
2023-02-14T21:51:32.609Z,4.50
2023-02-14T21:53:59.896Z,4.60
2023-02-14T21:56:27.702Z,4.50
2023-02-14T21:58:55.765Z,4.40
2023-02-14T22:01:31.920Z,4.70
2023-02-14T22:03:59.573Z,4.40
2023-02-14T22:06:27.495Z,4.30
2023-02-14T22:08:58.554Z,4.20
2023-02-14T22:11:28.020Z,4.20
2023-02-14T22:13:59.003Z,4.30
2023-02-14T22:16:25.843Z,4.30
2023-02-14T22:18:52.744Z,4.50
2023-02-14T22:21:22.545Z,4.50
2023-02-14T22:23:49.616Z,4.40
2023-02-14T22:26:16.403Z,4.50
2023-02-14T22:28:45.066Z,4.50
2023-02-14T22:31:12.824Z,4.50
2023-02-14T22:33:40.019Z,4.40
2023-02-14T22:36:07.434Z,4.40
2023-02-14T22:38:34.866Z,4.30
2023-02-14T22:41:07.044Z,4.30
2023-02-14T22:43:34.628Z,4.20
2023-02-14T22:46:13.961Z,4.20
2023-02-14T22:48:41.141Z,4.40
2023-02-14T22:51:28.876Z,4.30
2023-02-14T22:53:59.137Z,4.30
2023-02-14T22:56:38.864Z,4.20
2023-02-14T22:59:14.457Z,3.80
2023-02-14T23:01:41.209Z,3.60
2023-02-14T23:04:07.992Z,3.90
2023-02-14T23:06:36.316Z,3.60
2023-02-14T23:09:05.627Z,3.60
2023-02-14T23:11:35.592Z,3.70
2023-02-14T23:14:21.413Z,3.70
2023-02-14T23:17:07.267Z,3.60
2023-02-14T23:19:54.712Z,3.40
2023-02-14T23:22:26.622Z,3.50
2023-02-14T23:24:57.179Z,3.40
2023-02-14T23:27:29.453Z,4.20
2023-02-14T23:29:56.372Z,3.40
2023-02-14T23:32:23.151Z,3.60
2023-02-14T23:34:50.186Z,3.50
2023-02-14T23:37:16.928Z,3.50
2023-02-14T23:39:43.709Z,3.50
2023-02-14T23:42:14.859Z,3.40
2023-02-14T23:44:43.668Z,3.30
2023-02-14T23:47:12.034Z,3.10
2023-02-14T23:49:40.234Z,4.40
2023-02-14T23:52:09.339Z,3.00
2023-02-14T23:54:36.350Z,3.00
2023-02-14T23:57:03.988Z,2.90
2023-02-14T23:59:31.569Z,2.90
